sensor_id;sensor_type;location;lat;lon;timestamp;temperature;humidity
21061;DHT22;10689;50.836;3.266;2023-02-22T00:00:29;5.70;99.90
21061;DHT22;10689;50.836;3.266;2023-02-22T00:03:24;5.70;99.90
21061;DHT22;10689;50.836;3.266;2023-02-22T00:05:57;5.70;99.90
21061;DHT22;10689;50.836;3.266;2023-02-22T00:08:28;5.80;99.90
21061;DHT22;10689;50.836;3.266;2023-02-22T00:11:06;5.80;99.90
21061;DHT22;10689;50.836;3.266;2023-02-22T00:13:37;5.70;99.90
21061;DHT22;10689;50.836;3.266;2023-02-22T00:16:05;5.80;99.90
21061;DHT22;10689;50.836;3.266;2023-02-22T00:18:31;5.80;99.90
21061;DHT22;10689;50.836;3.266;2023-02-22T00:20:59;5.80;99.90
21061;DHT22;10689;50.836;3.266;2023-02-22T00:23:26;5.70;99.90
21061;DHT22;10689;50.836;3.266;2023-02-22T00:25:53;5.70;99.90
21061;DHT22;10689;50.836;3.266;2023-02-22T00:28:20;5.70;99.90
21061;DHT22;10689;50.836;3.266;2023-02-22T00:30:47;5.70;99.90
21061;DHT22;10689;50.836;3.266;2023-02-22T00:33:14;5.70;99.90
21061;DHT22;10689;50.836;3.266;2023-02-22T00:35:40;5.60;99.90
21061;DHT22;10689;50.836;3.266;2023-02-22T00:38:06;5.60;99.90
21061;DHT22;10689;50.836;3.266;2023-02-22T00:40:34;5.60;99.90
21061;DHT22;10689;50.836;3.266;2023-02-22T00:43:01;5.50;99.90
21061;DHT22;10689;50.836;3.266;2023-02-22T00:45:29;5.50;99.90
21061;DHT22;10689;50.836;3.266;2023-02-22T00:47:58;5.50;99.90
21061;DHT22;10689;50.836;3.266;2023-02-22T00:50:25;5.50;99.90
21061;DHT22;10689;50.836;3.266;2023-02-22T00:52:52;5.40;99.90
21061;DHT22;10689;50.836;3.266;2023-02-22T00:55:27;5.50;99.90
21061;DHT22;10689;50.836;3.266;2023-02-22T00:57:53;5.50;99.90
21061;DHT22;10689;50.836;3.266;2023-02-22T01:00:23;5.40;99.90
21061;DHT22;10689;50.836;3.266;2023-02-22T01:02:48;5.40;99.90
21061;DHT22;10689;50.836;3.266;2023-02-22T01:05:23;5.40;99.90
21061;DHT22;10689;50.836;3.266;2023-02-22T01:07:49;5.50;99.90
21061;DHT22;10689;50.836;3.266;2023-02-22T01:10:20;5.40;99.90
21061;DHT22;10689;50.836;3.266;2023-02-22T01:12:47;5.30;99.90
21061;DHT22;10689;50.836;3.266;2023-02-22T01:15:16;5.30;99.90
21061;DHT22;10689;50.836;3.266;2023-02-22T01:17:49;5.20;99.90
21061;DHT22;10689;50.836;3.266;2023-02-22T01:20:21;5.30;99.90
21061;DHT22;10689;50.836;3.266;2023-02-22T01:22:52;5.20;99.90
21061;DHT22;10689;50.836;3.266;2023-02-22T01:25:21;5.30;99.90
21061;DHT22;10689;50.836;3.266;2023-02-22T01:27:48;5.30;99.90
21061;DHT22;10689;50.836;3.266;2023-02-22T01:30:15;5.30;99.90
21061;DHT22;10689;50.836;3.266;2023-02-22T01:32:41;5.40;99.90
21061;DHT22;10689;50.836;3.266;2023-02-22T01:35:14;5.30;99.90
21061;DHT22;10689;50.836;3.266;2023-02-22T01:37:40;5.20;99.90
21061;DHT22;10689;50.836;3.266;2023-02-22T01:40:09;5.20;99.90
21061;DHT22;10689;50.836;3.266;2023-02-22T01:42:37;5.20;99.90
21061;DHT22;10689;50.836;3.266;2023-02-22T01:45:43;5.10;99.90
21061;DHT22;10689;50.836;3.266;2023-02-22T01:50:41;5.20;99.90
21061;DHT22;10689;50.836;3.266;2023-02-22T01:53:09;5.20;99.90
21061;DHT22;10689;50.836;3.266;2023-02-22T01:55:38;5.30;99.90
21061;DHT22;10689;50.836;3.266;2023-02-22T01:58:04;5.20;99.90
21061;DHT22;10689;50.836;3.266;2023-02-22T02:00:31;5.30;99.90
21061;DHT22;10689;50.836;3.266;2023-02-22T02:03:07;5.20;99.90
21061;DHT22;10689;50.836;3.266;2023-02-22T02:05:34;5.10;99.90
21061;DHT22;10689;50.836;3.266;2023-02-22T02:10:56;4.90;99.90
21061;DHT22;10689;50.836;3.266;2023-02-22T02:13:24;4.70;99.90
21061;DHT22;10689;50.836;3.266;2023-02-22T02:15:53;4.80;99.90
21061;DHT22;10689;50.836;3.266;2023-02-22T02:18:19;4.90;99.90
21061;DHT22;10689;50.836;3.266;2023-02-22T02:21:11;4.80;99.90
21061;DHT22;10689;50.836;3.266;2023-02-22T02:39:29;4.60;99.90
21061;DHT22;10689;50.836;3.266;2023-02-22T02:42:03;4.70;99.90
21061;DHT22;10689;50.836;3.266;2023-02-22T02:44:35;4.70;99.90
21061;DHT22;10689;50.836;3.266;2023-02-22T02:47:06;4.70;99.90
21061;DHT22;10689;50.836;3.266;2023-02-22T02:49:50;4.70;99.90
21061;DHT22;10689;50.836;3.266;2023-02-22T02:52:18;4.70;99.90
21061;DHT22;10689;50.836;3.266;2023-02-22T02:54:45;4.90;99.90
21061;DHT22;10689;50.836;3.266;2023-02-22T02:57:11;5.00;99.90
21061;DHT22;10689;50.836;3.266;2023-02-22T02:59:40;5.10;99.90
21061;DHT22;10689;50.836;3.266;2023-02-22T03:08:07;5.20;99.90
21061;DHT22;10689;50.836;3.266;2023-02-22T03:13:55;5.30;99.90
21061;DHT22;10689;50.836;3.266;2023-02-22T03:16:53;5.20;99.90
21061;DHT22;10689;50.836;3.266;2023-02-22T03:27:42;5.50;99.90
21061;DHT22;10689;50.836;3.266;2023-02-22T03:30:24;5.60;99.90
21061;DHT22;10689;50.836;3.266;2023-02-22T03:32:55;5.70;99.90
21061;DHT22;10689;50.836;3.266;2023-02-22T03:35:25;5.70;99.90
21061;DHT22;10689;50.836;3.266;2023-02-22T03:37:57;5.70;99.90
21061;DHT22;10689;50.836;3.266;2023-02-22T03:40:28;5.60;99.90
21061;DHT22;10689;50.836;3.266;2023-02-22T03:43:06;5.70;99.90
21061;DHT22;10689;50.836;3.266;2023-02-22T03:45:35;5.70;99.90
21061;DHT22;10689;50.836;3.266;2023-02-22T03:48:23;5.70;99.90
21061;DHT22;10689;50.836;3.266;2023-02-22T03:50:54;5.70;99.90
21061;DHT22;10689;50.836;3.266;2023-02-22T03:53:20;5.70;99.90
21061;DHT22;10689;50.836;3.266;2023-02-22T03:55:50;5.70;99.90
21061;DHT22;10689;50.836;3.266;2023-02-22T03:58:21;5.80;99.90
21061;DHT22;10689;50.836;3.266;2023-02-22T04:00:55;5.90;99.90
21061;DHT22;10689;50.836;3.266;2023-02-22T04:03:23;6.00;99.90
21061;DHT22;10689;50.836;3.266;2023-02-22T04:05:48;6.00;99.90
21061;DHT22;10689;50.836;3.266;2023-02-22T04:08:15;6.10;99.90
21061;DHT22;10689;50.836;3.266;2023-02-22T04:10:43;6.20;99.90
21061;DHT22;10689;50.836;3.266;2023-02-22T04:13:11;6.20;99.90
21061;DHT22;10689;50.836;3.266;2023-02-22T04:15:40;6.20;99.90
21061;DHT22;10689;50.836;3.266;2023-02-22T04:18:05;6.00;99.90
21061;DHT22;10689;50.836;3.266;2023-02-22T04:20:33;5.80;99.90
21061;DHT22;10689;50.836;3.266;2023-02-22T04:22:59;5.80;99.90
21061;DHT22;10689;50.836;3.266;2023-02-22T04:25:25;5.80;99.90
21061;DHT22;10689;50.836;3.266;2023-02-22T04:27:50;5.90;99.90
21061;DHT22;10689;50.836;3.266;2023-02-22T04:30:19;6.10;99.90
21061;DHT22;10689;50.836;3.266;2023-02-22T04:32:48;5.90;99.90
21061;DHT22;10689;50.836;3.266;2023-02-22T04:35:13;5.90;99.90
21061;DHT22;10689;50.836;3.266;2023-02-22T04:37:39;5.90;99.90
21061;DHT22;10689;50.836;3.266;2023-02-22T04:40:05;5.90;99.90
21061;DHT22;10689;50.836;3.266;2023-02-22T04:42:33;5.90;99.90
21061;DHT22;10689;50.836;3.266;2023-02-22T04:44:59;6.10;99.90
21061;DHT22;10689;50.836;3.266;2023-02-22T04:47:27;6.10;99.90
21061;DHT22;10689;50.836;3.266;2023-02-22T04:49:52;6.10;99.90
21061;DHT22;10689;50.836;3.266;2023-02-22T04:52:20;6.10;99.90
21061;DHT22;10689;50.836;3.266;2023-02-22T04:54:48;6.20;99.90
21061;DHT22;10689;50.836;3.266;2023-02-22T04:57:15;6.30;99.90
21061;DHT22;10689;50.836;3.266;2023-02-22T04:59:43;6.40;99.90
21061;DHT22;10689;50.836;3.266;2023-02-22T05:02:09;6.40;99.90
21061;DHT22;10689;50.836;3.266;2023-02-22T05:04:37;6.50;99.90
21061;DHT22;10689;50.836;3.266;2023-02-22T05:07:03;6.50;99.90
21061;DHT22;10689;50.836;3.266;2023-02-22T05:09:30;6.30;99.90
21061;DHT22;10689;50.836;3.266;2023-02-22T05:11:56;6.20;99.90
21061;DHT22;10689;50.836;3.266;2023-02-22T05:14:24;6.20;99.90
21061;DHT22;10689;50.836;3.266;2023-02-22T05:16:53;6.30;99.90
21061;DHT22;10689;50.836;3.266;2023-02-22T05:19:21;6.40;99.90
21061;DHT22;10689;50.836;3.266;2023-02-22T05:21:46;6.30;99.90
21061;DHT22;10689;50.836;3.266;2023-02-22T05:24:12;6.40;99.90
21061;DHT22;10689;50.836;3.266;2023-02-22T05:26:42;6.40;99.90
21061;DHT22;10689;50.836;3.266;2023-02-22T05:29:08;6.40;99.90
21061;DHT22;10689;50.836;3.266;2023-02-22T05:31:36;6.60;99.90
21061;DHT22;10689;50.836;3.266;2023-02-22T05:34:02;6.60;99.90
21061;DHT22;10689;50.836;3.266;2023-02-22T05:36:27;6.60;99.90
21061;DHT22;10689;50.836;3.266;2023-02-22T05:38:53;6.60;99.90
21061;DHT22;10689;50.836;3.266;2023-02-22T05:41:23;6.50;99.90
21061;DHT22;10689;50.836;3.266;2023-02-22T05:43:49;6.60;99.90
21061;DHT22;10689;50.836;3.266;2023-02-22T05:46:17;6.60;99.90
21061;DHT22;10689;50.836;3.266;2023-02-22T05:48:43;6.60;99.90
21061;DHT22;10689;50.836;3.266;2023-02-22T05:51:10;6.50;99.90
21061;DHT22;10689;50.836;3.266;2023-02-22T05:53:38;6.40;99.90
21061;DHT22;10689;50.836;3.266;2023-02-22T05:56:07;6.60;99.90
21061;DHT22;10689;50.836;3.266;2023-02-22T05:58:32;6.70;99.90
21061;DHT22;10689;50.836;3.266;2023-02-22T06:01:00;6.70;99.90
21061;DHT22;10689;50.836;3.266;2023-02-22T06:03:26;6.70;99.90
21061;DHT22;10689;50.836;3.266;2023-02-22T06:05:54;6.70;99.90
21061;DHT22;10689;50.836;3.266;2023-02-22T06:08:20;6.70;99.90
21061;DHT22;10689;50.836;3.266;2023-02-22T06:10:45;6.70;99.90
21061;DHT22;10689;50.836;3.266;2023-02-22T06:13:11;6.70;99.90
21061;DHT22;10689;50.836;3.266;2023-02-22T06:15:36;6.80;99.90
21061;DHT22;10689;50.836;3.266;2023-02-22T06:18:04;6.80;99.90
21061;DHT22;10689;50.836;3.266;2023-02-22T06:20:30;7.00;99.90
21061;DHT22;10689;50.836;3.266;2023-02-22T06:22:59;7.10;99.90
21061;DHT22;10689;50.836;3.266;2023-02-22T06:25:27;7.10;99.90
21061;DHT22;10689;50.836;3.266;2023-02-22T06:27:58;7.20;99.90
21061;DHT22;10689;50.836;3.266;2023-02-22T06:30:25;7.20;99.90
21061;DHT22;10689;50.836;3.266;2023-02-22T06:32:52;7.20;99.90
21061;DHT22;10689;50.836;3.266;2023-02-22T06:35:18;7.10;99.90
21061;DHT22;10689;50.836;3.266;2023-02-22T06:37:46;7.10;99.90
21061;DHT22;10689;50.836;3.266;2023-02-22T06:40:13;7.20;99.90
21061;DHT22;10689;50.836;3.266;2023-02-22T06:42:39;7.20;99.90
21061;DHT22;10689;50.836;3.266;2023-02-22T06:45:05;7.20;99.90
21061;DHT22;10689;50.836;3.266;2023-02-22T06:47:37;7.20;99.90
21061;DHT22;10689;50.836;3.266;2023-02-22T06:50:16;7.20;99.90
21061;DHT22;10689;50.836;3.266;2023-02-22T06:52:42;7.20;99.90
21061;DHT22;10689;50.836;3.266;2023-02-22T06:55:08;7.20;99.90
21061;DHT22;10689;50.836;3.266;2023-02-22T06:57:34;7.30;99.90
21061;DHT22;10689;50.836;3.266;2023-02-22T06:59:59;7.30;99.90
21061;DHT22;10689;50.836;3.266;2023-02-22T07:02:25;7.40;99.90
21061;DHT22;10689;50.836;3.266;2023-02-22T07:04:50;7.40;99.90
21061;DHT22;10689;50.836;3.266;2023-02-22T07:07:21;7.60;99.90
21061;DHT22;10689;50.836;3.266;2023-02-22T07:09:47;7.80;99.90
21061;DHT22;10689;50.836;3.266;2023-02-22T07:12:12;7.80;99.90
21061;DHT22;10689;50.836;3.266;2023-02-22T07:14:38;7.80;99.90
21061;DHT22;10689;50.836;3.266;2023-02-22T07:17:04;7.90;99.90
21061;DHT22;10689;50.836;3.266;2023-02-22T07:19:29;7.90;99.90
21061;DHT22;10689;50.836;3.266;2023-02-22T07:21:55;7.90;99.90
21061;DHT22;10689;50.836;3.266;2023-02-22T07:24:24;7.90;99.90
21061;DHT22;10689;50.836;3.266;2023-02-22T07:26:51;8.00;99.90
21061;DHT22;10689;50.836;3.266;2023-02-22T07:29:16;7.90;99.90
21061;DHT22;10689;50.836;3.266;2023-02-22T07:31:42;7.80;99.90
21061;DHT22;10689;50.836;3.266;2023-02-22T07:34:07;7.80;99.90
21061;DHT22;10689;50.836;3.266;2023-02-22T07:36:33;7.80;99.90
21061;DHT22;10689;50.836;3.266;2023-02-22T07:39:01;7.90;99.90
21061;DHT22;10689;50.836;3.266;2023-02-22T07:41:26;8.00;99.90
21061;DHT22;10689;50.836;3.266;2023-02-22T07:43:54;8.00;99.90
21061;DHT22;10689;50.836;3.266;2023-02-22T07:46:22;8.00;99.90
21061;DHT22;10689;50.836;3.266;2023-02-22T07:48:48;7.90;99.90
21061;DHT22;10689;50.836;3.266;2023-02-22T07:51:15;7.90;99.90
21061;DHT22;10689;50.836;3.266;2023-02-22T07:53:41;7.90;99.90
21061;DHT22;10689;50.836;3.266;2023-02-22T07:56:07;7.90;99.90
21061;DHT22;10689;50.836;3.266;2023-02-22T07:58:35;8.00;99.90
21061;DHT22;10689;50.836;3.266;2023-02-22T08:01:00;8.10;99.90
21061;DHT22;10689;50.836;3.266;2023-02-22T08:03:33;8.20;99.90
21061;DHT22;10689;50.836;3.266;2023-02-22T08:06:01;8.30;99.90
21061;DHT22;10689;50.836;3.266;2023-02-22T08:08:27;8.20;99.90
21061;DHT22;10689;50.836;3.266;2023-02-22T08:10:54;8.30;99.90
21061;DHT22;10689;50.836;3.266;2023-02-22T08:13:20;8.40;99.90
21061;DHT22;10689;50.836;3.266;2023-02-22T08:15:50;8.40;99.90
21061;DHT22;10689;50.836;3.266;2023-02-22T08:18:17;8.40;99.90
21061;DHT22;10689;50.836;3.266;2023-02-22T08:20:45;8.50;99.90
21061;DHT22;10689;50.836;3.266;2023-02-22T08:23:13;8.50;99.90
21061;DHT22;10689;50.836;3.266;2023-02-22T08:25:39;8.60;99.90
21061;DHT22;10689;50.836;3.266;2023-02-22T08:28:10;8.70;99.90
21061;DHT22;10689;50.836;3.266;2023-02-22T08:30:38;8.70;99.90
21061;DHT22;10689;50.836;3.266;2023-02-22T08:33:04;8.80;99.90
21061;DHT22;10689;50.836;3.266;2023-02-22T08:35:31;9.00;99.90
21061;DHT22;10689;50.836;3.266;2023-02-22T08:38:03;9.00;99.90
21061;DHT22;10689;50.836;3.266;2023-02-22T08:40:31;9.20;99.90
21061;DHT22;10689;50.836;3.266;2023-02-22T08:42:57;9.20;99.90
21061;DHT22;10689;50.836;3.266;2023-02-22T08:45:23;9.30;99.90
21061;DHT22;10689;50.836;3.266;2023-02-22T08:47:52;9.30;99.90
21061;DHT22;10689;50.836;3.266;2023-02-22T08:50:29;9.30;99.90
21061;DHT22;10689;50.836;3.266;2023-02-22T08:52:56;9.50;99.90
21061;DHT22;10689;50.836;3.266;2023-02-22T08:55:26;9.70;99.90
21061;DHT22;10689;50.836;3.266;2023-02-22T08:57:52;9.80;99.90
21061;DHT22;10689;50.836;3.266;2023-02-22T09:00:20;9.80;99.90
21061;DHT22;10689;50.836;3.266;2023-02-22T09:02:49;9.80;99.90
21061;DHT22;10689;50.836;3.266;2023-02-22T09:05:14;9.90;99.90
21061;DHT22;10689;50.836;3.266;2023-02-22T09:07:42;10.00;99.90
21061;DHT22;10689;50.836;3.266;2023-02-22T09:10:12;10.00;99.90
21061;DHT22;10689;50.836;3.266;2023-02-22T09:12:40;10.10;99.90
21061;DHT22;10689;50.836;3.266;2023-02-22T09:15:06;10.10;99.90
21061;DHT22;10689;50.836;3.266;2023-02-22T09:17:32;10.20;99.90
21061;DHT22;10689;50.836;3.266;2023-02-22T09:20:05;10.30;99.90
21061;DHT22;10689;50.836;3.266;2023-02-22T09:22:31;10.30;99.90
21061;DHT22;10689;50.836;3.266;2023-02-22T09:24:56;10.30;99.90
21061;DHT22;10689;50.836;3.266;2023-02-22T09:27:22;10.30;99.90
21061;DHT22;10689;50.836;3.266;2023-02-22T09:29:48;10.30;99.90
21061;DHT22;10689;50.836;3.266;2023-02-22T09:32:16;10.50;99.90
21061;DHT22;10689;50.836;3.266;2023-02-22T09:34:45;10.60;99.90
21061;DHT22;10689;50.836;3.266;2023-02-22T09:37:12;10.60;99.90
21061;DHT22;10689;50.836;3.266;2023-02-22T09:39:38;10.70;99.90
21061;DHT22;10689;50.836;3.266;2023-02-22T09:45:02;10.80;99.90
21061;DHT22;10689;50.836;3.266;2023-02-22T09:48:05;10.90;99.90
21061;DHT22;10689;50.836;3.266;2023-02-22T09:50:36;10.90;99.90
21061;DHT22;10689;50.836;3.266;2023-02-22T09:53:27;11.10;99.90
21061;DHT22;10689;50.836;3.266;2023-02-22T09:55:59;11.20;99.90
21061;DHT22;10689;50.836;3.266;2023-02-22T09:58:48;11.20;99.90
21061;DHT22;10689;50.836;3.266;2023-02-22T10:01:39;11.20;99.90
21061;DHT22;10689;50.836;3.266;2023-02-22T10:04:18;11.30;99.90
21061;DHT22;10689;50.836;3.266;2023-02-22T10:07:20;11.20;99.90
21061;DHT22;10689;50.836;3.266;2023-02-22T10:09:45;11.30;99.90
21061;DHT22;10689;50.836;3.266;2023-02-22T10:15:29;11.50;99.90
21061;DHT22;10689;50.836;3.266;2023-02-22T10:26:16;11.70;99.90
21061;DHT22;10689;50.836;3.266;2023-02-22T10:29:15;11.70;99.90
21061;DHT22;10689;50.836;3.266;2023-02-22T10:31:45;11.70;99.90
21061;DHT22;10689;50.836;3.266;2023-02-22T10:34:19;11.60;99.90
21061;DHT22;10689;50.836;3.266;2023-02-22T10:36:52;11.50;99.90
21061;DHT22;10689;50.836;3.266;2023-02-22T10:41:56;10.90;99.90
21061;DHT22;10689;50.836;3.266;2023-02-22T10:44:22;10.90;99.90
21061;DHT22;10689;50.836;3.266;2023-02-22T10:46:48;10.90;99.90
21061;DHT22;10689;50.836;3.266;2023-02-22T10:49:22;10.90;99.90
21061;DHT22;10689;50.836;3.266;2023-02-22T10:52:05;11.00;99.90
21061;DHT22;10689;50.836;3.266;2023-02-22T10:54:39;11.10;99.90
21061;DHT22;10689;50.836;3.266;2023-02-22T10:57:05;11.10;99.90
21061;DHT22;10689;50.836;3.266;2023-02-22T10:59:38;11.10;99.90
21061;DHT22;10689;50.836;3.266;2023-02-22T11:02:28;11.00;99.90
21061;DHT22;10689;50.836;3.266;2023-02-22T11:04:57;11.00;99.90
21061;DHT22;10689;50.836;3.266;2023-02-22T11:07:32;10.90;99.90
21061;DHT22;10689;50.836;3.266;2023-02-22T11:10:04;10.90;99.90
21061;DHT22;10689;50.836;3.266;2023-02-22T11:17:49;11.30;99.90
21061;DHT22;10689;50.836;3.266;2023-02-22T11:20:20;11.30;99.90
21061;DHT22;10689;50.836;3.266;2023-02-22T11:22:54;11.40;99.90
21061;DHT22;10689;50.836;3.266;2023-02-22T11:25:59;11.40;99.90
21061;DHT22;10689;50.836;3.266;2023-02-22T11:28:21;11.40;99.90
21061;DHT22;10689;50.836;3.266;2023-02-22T11:30:57;11.30;99.90
21061;DHT22;10689;50.836;3.266;2023-02-22T11:33:25;11.30;99.90
21061;DHT22;10689;50.836;3.266;2023-02-22T11:35:58;11.30;99.90
21061;DHT22;10689;50.836;3.266;2023-02-22T11:38:33;11.30;99.90
21061;DHT22;10689;50.836;3.266;2023-02-22T11:43:45;11.40;99.90
21061;DHT22;10689;50.836;3.266;2023-02-22T11:46:21;11.30;99.90
21061;DHT22;10689;50.836;3.266;2023-02-22T11:49:06;11.40;99.90
21061;DHT22;10689;50.836;3.266;2023-02-22T12:00:04;11.30;99.90
21061;DHT22;10689;50.836;3.266;2023-02-22T12:02:43;11.20;99.90
21061;DHT22;10689;50.836;3.266;2023-02-22T12:05:27;11.30;99.90
21061;DHT22;10689;50.836;3.266;2023-02-22T12:13:48;11.60;99.90
21061;DHT22;10689;50.836;3.266;2023-02-22T12:21:20;11.60;99.90
21061;DHT22;10689;50.836;3.266;2023-02-22T12:24:00;11.70;99.90
21061;DHT22;10689;50.836;3.266;2023-02-22T12:26:58;11.60;99.90
21061;DHT22;10689;50.836;3.266;2023-02-22T12:32:39;11.60;99.90
21061;DHT22;10689;50.836;3.266;2023-02-22T12:35:36;11.60;99.90
21061;DHT22;10689;50.836;3.266;2023-02-22T12:43:40;11.70;99.90
21061;DHT22;10689;50.836;3.266;2023-02-22T12:49:06;11.30;99.90
21061;DHT22;10689;50.836;3.266;2023-02-22T12:54:04;11.20;99.90
21061;DHT22;10689;50.836;3.266;2023-02-22T12:56:45;11.40;99.90
21061;DHT22;10689;50.836;3.266;2023-02-22T12:59:32;11.50;99.90
21061;DHT22;10689;50.836;3.266;2023-02-22T13:04:51;11.40;99.90
21061;DHT22;10689;50.836;3.266;2023-02-22T13:07:24;11.50;99.90
21061;DHT22;10689;50.836;3.266;2023-02-22T13:15:31;11.50;99.90
21061;DHT22;10689;50.836;3.266;2023-02-22T13:18:01;11.70;99.90
21061;DHT22;10689;50.836;3.266;2023-02-22T13:26:27;11.70;99.90
21061;DHT22;10689;50.836;3.266;2023-02-22T13:29:03;11.70;99.90
21061;DHT22;10689;50.836;3.266;2023-02-22T13:45:15;11.30;99.90
21061;DHT22;10689;50.836;3.266;2023-02-22T13:50:51;11.20;99.90
21061;DHT22;10689;50.836;3.266;2023-02-22T13:53:26;10.90;99.90
21061;DHT22;10689;50.836;3.266;2023-02-22T13:55:57;10.80;99.90
21061;DHT22;10689;50.836;3.266;2023-02-22T13:58:25;10.80;99.90
21061;DHT22;10689;50.836;3.266;2023-02-22T14:00:56;10.90;99.90
21061;DHT22;10689;50.836;3.266;2023-02-22T14:03:31;10.90;99.90
21061;DHT22;10689;50.836;3.266;2023-02-22T14:06:04;11.10;99.90
21061;DHT22;10689;50.836;3.266;2023-02-22T14:16:30;11.10;99.90
21061;DHT22;10689;50.836;3.266;2023-02-22T14:21:57;11.30;99.90
21061;DHT22;10689;50.836;3.266;2023-02-22T14:24:27;11.40;99.90
21061;DHT22;10689;50.836;3.266;2023-02-22T14:27:04;11.50;99.90
21061;DHT22;10689;50.836;3.266;2023-02-22T14:29:30;11.30;99.90
21061;DHT22;10689;50.836;3.266;2023-02-22T14:32:07;11.40;99.90
21061;DHT22;10689;50.836;3.266;2023-02-22T14:34:53;11.60;99.90
21061;DHT22;10689;50.836;3.266;2023-02-22T14:39:59;11.80;99.90
21061;DHT22;10689;50.836;3.266;2023-02-22T14:42:40;11.90;99.90
21061;DHT22;10689;50.836;3.266;2023-02-22T14:53:03;11.60;99.90
21061;DHT22;10689;50.836;3.266;2023-02-22T14:55:36;11.60;99.90
21061;DHT22;10689;50.836;3.266;2023-02-22T14:58:14;11.80;99.90
21061;DHT22;10689;50.836;3.266;2023-02-22T15:00:49;11.80;99.90
21061;DHT22;10689;50.836;3.266;2023-02-22T15:03:30;11.70;99.90
21061;DHT22;10689;50.836;3.266;2023-02-22T15:08:33;11.80;99.90
21061;DHT22;10689;50.836;3.266;2023-02-22T15:10:59;11.80;99.90
21061;DHT22;10689;50.836;3.266;2023-02-22T15:13:29;11.80;99.90
21061;DHT22;10689;50.836;3.266;2023-02-22T15:16:04;12.00;99.90
21061;DHT22;10689;50.836;3.266;2023-02-22T15:18:39;12.00;99.90
21061;DHT22;10689;50.836;3.266;2023-02-22T15:21:20;12.00;99.90
21061;DHT22;10689;50.836;3.266;2023-02-22T15:23:51;12.10;99.90
21061;DHT22;10689;50.836;3.266;2023-02-22T15:28:56;12.00;99.90
21061;DHT22;10689;50.836;3.266;2023-02-22T15:31:32;12.00;99.90
21061;DHT22;10689;50.836;3.266;2023-02-22T15:34:09;12.00;99.90
21061;DHT22;10689;50.836;3.266;2023-02-22T15:36:41;12.00;99.90
21061;DHT22;10689;50.836;3.266;2023-02-22T15:39:28;11.90;99.90
21061;DHT22;10689;50.836;3.266;2023-02-22T15:42:20;12.00;99.90
21061;DHT22;10689;50.836;3.266;2023-02-22T15:44:51;11.90;99.90
21061;DHT22;10689;50.836;3.266;2023-02-22T15:47:25;11.90;99.90
21061;DHT22;10689;50.836;3.266;2023-02-22T15:52:59;12.00;99.90
21061;DHT22;10689;50.836;3.266;2023-02-22T15:57:51;12.10;99.90
21061;DHT22;10689;50.836;3.266;2023-02-22T16:00:23;12.10;99.90
21061;DHT22;10689;50.836;3.266;2023-02-22T16:02:50;12.10;99.90
21061;DHT22;10689;50.836;3.266;2023-02-22T16:05:19;12.00;99.90
21061;DHT22;10689;50.836;3.266;2023-02-22T16:07:47;12.00;99.90
21061;DHT22;10689;50.836;3.266;2023-02-22T16:10:34;12.00;99.90
21061;DHT22;10689;50.836;3.266;2023-02-22T16:13:09;12.10;99.90
21061;DHT22;10689;50.836;3.266;2023-02-22T16:15:58;12.10;99.90
21061;DHT22;10689;50.836;3.266;2023-02-22T16:18:34;12.10;99.90
21061;DHT22;10689;50.836;3.266;2023-02-22T16:21:09;12.10;99.90
21061;DHT22;10689;50.836;3.266;2023-02-22T16:23:55;12.20;99.90
21061;DHT22;10689;50.836;3.266;2023-02-22T16:26:22;12.10;99.90
21061;DHT22;10689;50.836;3.266;2023-02-22T16:28:53;12.20;99.90
21061;DHT22;10689;50.836;3.266;2023-02-22T16:31:22;12.20;99.90
21061;DHT22;10689;50.836;3.266;2023-02-22T16:33:50;12.20;99.90
21061;DHT22;10689;50.836;3.266;2023-02-22T16:36:17;12.20;99.90
21061;DHT22;10689;50.836;3.266;2023-02-22T16:38:43;12.30;99.90
21061;DHT22;10689;50.836;3.266;2023-02-22T16:41:14;12.30;99.90
21061;DHT22;10689;50.836;3.266;2023-02-22T16:43:48;12.30;99.90
21061;DHT22;10689;50.836;3.266;2023-02-22T16:46:17;12.30;99.90
21061;DHT22;10689;50.836;3.266;2023-02-22T16:48:44;12.10;99.90
21061;DHT22;10689;50.836;3.266;2023-02-22T16:51:25;12.10;99.90
21061;DHT22;10689;50.836;3.266;2023-02-22T16:53:53;12.00;99.90
21061;DHT22;10689;50.836;3.266;2023-02-22T16:56:22;12.10;99.90
21061;DHT22;10689;50.836;3.266;2023-02-22T16:58:50;11.90;99.90
21061;DHT22;10689;50.836;3.266;2023-02-22T17:01:18;11.80;99.90
21061;DHT22;10689;50.836;3.266;2023-02-22T17:03:46;11.90;99.90
21061;DHT22;10689;50.836;3.266;2023-02-22T17:06:15;11.90;99.90
21061;DHT22;10689;50.836;3.266;2023-02-22T17:08:41;11.80;99.90
21061;DHT22;10689;50.836;3.266;2023-02-22T17:11:09;11.80;99.90
21061;DHT22;10689;50.836;3.266;2023-02-22T17:13:35;11.80;99.90
21061;DHT22;10689;50.836;3.266;2023-02-22T17:16:02;11.80;99.90
21061;DHT22;10689;50.836;3.266;2023-02-22T17:18:28;11.80;99.90
21061;DHT22;10689;50.836;3.266;2023-02-22T17:20:59;11.70;99.90
21061;DHT22;10689;50.836;3.266;2023-02-22T17:23:28;11.60;99.90
21061;DHT22;10689;50.836;3.266;2023-02-22T17:26:01;11.60;99.90
21061;DHT22;10689;50.836;3.266;2023-02-22T17:28:28;11.70;99.90
21061;DHT22;10689;50.836;3.266;2023-02-22T17:30:57;11.80;99.90
21061;DHT22;10689;50.836;3.266;2023-02-22T17:33:31;11.80;99.90
21061;DHT22;10689;50.836;3.266;2023-02-22T17:35:58;11.80;99.90
21061;DHT22;10689;50.836;3.266;2023-02-22T17:38:26;11.80;99.90
21061;DHT22;10689;50.836;3.266;2023-02-22T17:40:56;11.80;99.90
21061;DHT22;10689;50.836;3.266;2023-02-22T17:43:24;11.90;99.90
21061;DHT22;10689;50.836;3.266;2023-02-22T17:45:55;11.70;99.90
21061;DHT22;10689;50.836;3.266;2023-02-22T17:48:21;11.80;99.90
21061;DHT22;10689;50.836;3.266;2023-02-22T17:50:47;11.60;99.90
21061;DHT22;10689;50.836;3.266;2023-02-22T17:53:16;11.50;99.90
21061;DHT22;10689;50.836;3.266;2023-02-22T17:55:46;11.40;99.90
21061;DHT22;10689;50.836;3.266;2023-02-22T17:58:13;11.30;99.90
21061;DHT22;10689;50.836;3.266;2023-02-22T18:00:41;11.30;99.90
21061;DHT22;10689;50.836;3.266;2023-02-22T18:03:10;11.40;99.90
21061;DHT22;10689;50.836;3.266;2023-02-22T18:05:42;11.40;99.90
21061;DHT22;10689;50.836;3.266;2023-02-22T18:08:10;11.40;99.90
21061;DHT22;10689;50.836;3.266;2023-02-22T18:10:35;11.30;99.90
21061;DHT22;10689;50.836;3.266;2023-02-22T18:13:01;11.10;99.90
21061;DHT22;10689;50.836;3.266;2023-02-22T18:15:28;11.10;99.90
21061;DHT22;10689;50.836;3.266;2023-02-22T18:17:54;11.10;99.90
21061;DHT22;10689;50.836;3.266;2023-02-22T18:20:21;11.10;99.90
21061;DHT22;10689;50.836;3.266;2023-02-22T18:22:58;11.20;99.90
21061;DHT22;10689;50.836;3.266;2023-02-22T18:25:25;11.30;99.90
21061;DHT22;10689;50.836;3.266;2023-02-22T18:27:51;11.20;99.90
21061;DHT22;10689;50.836;3.266;2023-02-22T18:30:18;11.20;99.90
21061;DHT22;10689;50.836;3.266;2023-02-22T18:32:44;11.10;99.90
21061;DHT22;10689;50.836;3.266;2023-02-22T18:35:11;11.10;99.90
21061;DHT22;10689;50.836;3.266;2023-02-22T18:37:39;11.00;99.90
21061;DHT22;10689;50.836;3.266;2023-02-22T18:40:05;11.00;99.90